Aeroporto :
LOGIN :

Iscrizione | Disclaimer

   EN    FR    IT 

 










Sommario :    VFR   VFR Marginale   IFR   IFR Intensivo   IFR Molto Intensivo
Visibilità : 
Base nubi : 
>= 8 km
>= 3000ft
5 / 8 km
1000 / 3000 ft
1500m / 5 km
500 / 1000 ft
800 / 1500m
200 / 500 ft
< 800m
< 200 ft
Simboli :   Temporali  Nebbia  Neve Forte  Precipitazioni Forti  Vento > 20 kt
SIGMETs :   Varie  Temporali  Ghiacco  Turbolenza  Onda orograficha  Ceneri Vulcaniche






- Altitudine del aeroporto : 3368 ft


LSGC - Les Eplatures

ULTIMO METAR :
  • 200620Z AUTO 00000KT CAVOK M06/M07 Q1012

METARs OBSOLETI :
  • 200550Z AUTO 00000KT CAVOK M05/M06 Q1012
  • 200520Z AUTO 00000KT 9000 NCD M06/M07 Q1012
  • 200450Z AUTO 00000KT CAVOK M06/M06 Q1012
  • 200420Z AUTO VRB01KT CAVOK M06/M07 Q1013
  • 200350Z AUTO 00000KT CAVOK M06/M07 Q1013

TAF TAF LSGC
Valido dal 20 a 06 ore il 20 a 15 ore UTC


200525Z 2006/2015 VRB03KT CAVOK
PROB30
TEMPO 2006/2012 9000 BKN008



MetMap, La meteo Aeronautica in un colpo d'occhio ! - Copyright ORBIFLY Dicembre 2007 - Disclaimer

ORBIFLY MET'MAP TEAM :

Programmazione e sviluppo : Alexandra Zaïnal
Concezione e sviluppo : Baudouin d'Aumeries
Co-Programmazione e sviluppo : Marc-Olivier Méhu
Supporto tecnico e logistico : Manuel Goepfert
Aiuto per la traduzione : Arnaldo La Scala

Contatto : metmap@orbifly.com




FONTI E CREDITI :

   NOAA